Scheller, IL (62883)

6:16 AM CDT on September 05, 2015 (GMT -0500)
MesoWest | | Change Station
CLOSE
Current Station
Personal Weather Station
Location: Scheller, IL
Elevation: 509 ft
Nearby Weather Stations

Elev 509 ft 38.19 °N, 89.10 °W | Updated 2 days ago

Clear
Clear
73 °F
Feels Like 73 °F
N
0
Wind Variable Wind from ENE
Gusts mph

Today
High -- | Low -- °F
--% Chance of Precip.
Yesterday
High -- | Low -- °F
Precip. -- in
6:29 AM 7:20 PM
Waning Gibbous, 49% visible
Pressure 30.10 in
Visibility 6.0 miles
Clouds Clear
Dew Point 69 °F
Humidity 87%
Rainfall in
Snow Depth Not available.
UV 0 out of 12
Pollen 10.80 out of 12
Air Quality Not available.
Flu Activity Not available.
METAR KMVN 051115Z AUTO 00000KT 6SM CLR 20/17 A3010 RMK AO1
Pressure 30.10 in
Visibility 6.0 miles
Clouds Clear
Dew Point 69 °F
Humidity 87%
Rainfall in
Snow Depth Not available.
UV 0 out of 12
Pollen 10.80 out of 12
Air Quality Not available.
Flu Activity Not available.
METAR KMVN 051115Z AUTO 00000KT 6SM CLR 20/17 A3010 RMK AO1

10-Day Weather Forecast

×

Almanac

Astronomy

Sep. 05, 2015 Rise Set
Actual Time
Civil Twilight
Nautical Twilight
Astronomical Twilight
Moon
Length of Visible Light
Length of Day
Tomorrow will be .
, % of the Moon is Illuminated

Today's Extremes

State Highs State Lows

Community

WunderPhotos

Upload Photos

1,852,445 photos uploaded!

WunderBlogs® & News

Nearby

Air Quality

  Air Quality AQ Index Pollutant
Not available.

Snow Depth

Station Depth Elevation

Earthquake Activity

City Distance Mag. Time & Date
Minimum magnitude displayed is 2.5.

Coastal Water Temperatures

Place Temperature

Stations

Nearby Weather Stations

Station Location Temp. Windchill Dew Point Humidity Wind Precip. Elev Updated Type